createdAt,value
2022-10-13T00:00:42.658Z,101912.38
2022-10-13T00:03:15.012Z,101912.38
2022-10-13T00:05:48.657Z,101907.09
2022-10-13T00:08:22.195Z,101905.41
2022-10-13T00:10:54.066Z,101894.91
2022-10-13T00:13:28.782Z,101898.97
2022-10-13T00:16:02.308Z,101902.03
2022-10-13T00:18:35.567Z,101904.09
2022-10-13T00:21:13.577Z,101901.38
2022-10-13T00:23:45.509Z,101904.09
2022-10-13T00:26:23.404Z,101887.81
2022-10-13T00:28:56.492Z,101889.50
2022-10-13T00:31:30.103Z,101894.06
2022-10-13T00:34:02.074Z,101887.81
2022-10-13T00:36:33.997Z,101887.81
2022-10-13T00:39:06.513Z,101886.97
2022-10-13T00:41:38.501Z,101885.44
2022-10-13T00:44:47.721Z,101878.50
2022-10-13T00:47:19.937Z,101875.25
2022-10-13T00:49:52.615Z,101882.06
2022-10-13T00:52:25.938Z,101880.72
2022-10-13T00:54:57.981Z,101874.97
2022-10-13T00:57:45.241Z,101869.56
2022-10-13T01:00:17.277Z,101880.41
2022-10-13T01:02:49.209Z,101878.03
2022-10-13T01:05:21.655Z,101879.38
2022-10-13T01:07:53.813Z,101871.25
2022-10-13T01:10:37.445Z,101868.69
2022-10-13T01:13:17.914Z,101864.47
2022-10-13T01:15:52.199Z,101862.63
2022-10-13T01:18:34.468Z,101860.94
2022-10-13T01:21:16.098Z,101859.38
2022-10-13T01:24:36.004Z,101860.59
2022-10-13T01:27:15.420Z,101857.38
2022-10-13T01:29:58.679Z,101856.69
2022-10-13T01:32:49.336Z,101861.44
2022-10-13T01:35:42.466Z,101854.66
2022-10-13T01:38:39.152Z,101851.28
2022-10-13T01:41:15.620Z,101849.94
2022-10-13T01:43:53.658Z,101852.31
2022-10-13T01:46:36.881Z,101846.56
2022-10-13T01:49:13.733Z,101840.44
2022-10-13T01:51:46.554Z,101833.66
2022-10-13T01:54:18.434Z,101834.00
2022-10-13T01:56:54.227Z,101837.75
2022-10-13T01:59:28.707Z,101832.66
2022-10-13T02:02:11.876Z,101828.41
2022-10-13T02:04:49.534Z,101824.00
2022-10-13T02:07:29.107Z,101830.09
2022-10-13T02:10:08.169Z,101834.34
2022-10-13T02:12:50.055Z,101825.19
2022-10-13T02:15:44.492Z,101820.28
2022-10-13T02:18:21.120Z,101824.53
2022-10-13T02:20:53.613Z,101818.75
2022-10-13T02:23:27.212Z,101821.31
2022-10-13T02:25:59.581Z,101815.69
2022-10-13T02:28:31.540Z,101814.38
2022-10-13T02:31:07.014Z,101809.75
2022-10-13T02:33:39.629Z,101809.59
2022-10-13T02:36:11.591Z,101809.44
2022-10-13T02:38:43.576Z,101804.00
2022-10-13T02:41:15.928Z,101806.56
2022-10-13T02:43:48.070Z,101795.03
2022-10-13T02:46:19.876Z,101797.75
2022-10-13T02:48:52.089Z,101793.16
2022-10-13T02:51:24.011Z,101797.59
2022-10-13T02:53:55.963Z,101794.69
2022-10-13T02:56:28.034Z,101797.38
2022-10-13T02:58:59.971Z,101795.53
2022-10-13T03:01:32.899Z,101799.09
2022-10-13T03:04:04.739Z,101801.16
2022-10-13T03:06:36.991Z,101794.88
2022-10-13T03:09:09.150Z,101799.44
2022-10-13T03:11:41.972Z,101800.63
2022-10-13T03:14:14.036Z,101796.41
2022-10-13T03:16:45.997Z,101792.69
2022-10-13T03:19:18.395Z,101782.66
2022-10-13T03:21:50.475Z,101781.84
2022-10-13T03:24:22.326Z,101784.03
2022-10-13T03:26:54.401Z,101788.09
2022-10-13T03:29:26.677Z,101785.91
2022-10-13T03:31:58.623Z,101783.53
2022-10-13T03:34:30.506Z,101779.28
2022-10-13T03:37:02.942Z,101783.88
2022-10-13T03:39:38.981Z,101780.31
2022-10-13T03:42:12.124Z,101773.03
2022-10-13T03:44:44.450Z,101778.44
2022-10-13T03:47:16.395Z,101772.00
2022-10-13T03:49:48.314Z,101766.59
2022-10-13T03:52:20.550Z,101781.84
2022-10-13T03:54:52.914Z,101781.84
2022-10-13T03:57:24.716Z,101772.00
2022-10-13T03:59:57.640Z,101776.75
2022-10-13T04:02:31.876Z,101783.88
2022-10-13T04:05:04.618Z,101783.03
2022-10-13T04:07:36.599Z,101777.78
2022-10-13T04:10:13.393Z,101779.47
2022-10-13T04:12:45.500Z,101772.19
2022-10-13T04:15:17.389Z,101775.56
2022-10-13T04:17:49.497Z,101778.94
2022-10-13T04:20:21.265Z,101769.81
2022-10-13T04:22:53.175Z,101774.06
2022-10-13T04:25:24.950Z,101768.63
2022-10-13T04:27:56.842Z,101766.94
2022-10-13T04:30:29.363Z,101764.38
2022-10-13T04:33:01.511Z,101765.59
2022-10-13T04:35:33.374Z,101760.31
2022-10-13T04:38:05.283Z,101766.75
2022-10-13T04:40:37.092Z,101754.41
2022-10-13T04:43:08.973Z,101763.72
2022-10-13T04:45:40.750Z,101755.94
2022-10-13T04:48:12.908Z,101763.38
2022-10-13T04:50:44.763Z,101766.44
2022-10-13T04:53:19.285Z,101755.09
2022-10-13T04:55:51.517Z,101763.56
2022-10-13T04:58:23.466Z,101753.06
2022-10-13T05:00:57.516Z,101756.09
2022-10-13T05:03:29.528Z,101755.44
2022-10-13T05:06:01.741Z,101748.47
2022-10-13T05:08:34.146Z,101744.91
2022-10-13T05:11:06.100Z,101743.06
2022-10-13T05:13:38.606Z,101742.22
2022-10-13T05:16:12.962Z,101738.50
2022-10-13T05:18:45.236Z,101747.31
2022-10-13T05:21:19.630Z,101740.19
2022-10-13T05:23:55.972Z,101736.63
2022-10-13T05:26:29.798Z,101732.06
2022-10-13T05:29:02.577Z,101736.47
2022-10-13T05:31:36.451Z,101728.00
2022-10-13T05:34:08.384Z,101717.00
2022-10-13T05:36:40.226Z,101717.69
2022-10-13T05:39:13.087Z,101720.22
2022-10-13T05:41:44.971Z,101710.06
2022-10-13T05:44:26.058Z,101725.97
2022-10-13T05:47:06.465Z,101718.53
2022-10-13T05:49:39.849Z,101708.34
2022-10-13T05:52:12.824Z,101705.81
2022-10-13T05:54:48.312Z,101702.28
2022-10-13T05:57:28.997Z,101698.53
2022-10-13T06:00:05.019Z,101696.84
2022-10-13T06:02:48.746Z,101685.53
2022-10-13T06:05:22.242Z,101685.00
2022-10-13T06:07:58.226Z,101692.47
2022-10-13T06:10:30.200Z,101681.94
2022-10-13T06:13:02.159Z,101676.53
2022-10-13T06:15:34.029Z,101680.09
2022-10-13T06:18:09.890Z,101689.22
2022-10-13T06:20:43.538Z,101687.38
2022-10-13T06:23:19.597Z,101694.66
2022-10-13T06:25:52.483Z,101690.41
2022-10-13T06:28:24.421Z,101691.94
2022-10-13T06:30:57.174Z,101690.09
2022-10-13T06:33:29.035Z,101700.56
2022-10-13T06:36:03.340Z,101687.72
2022-10-13T06:38:35.096Z,101691.06
2022-10-13T06:41:07.268Z,101697.34
2022-10-13T06:43:41.647Z,101699.88
2022-10-13T06:46:15.889Z,101699.69
2022-10-13T06:48:51.432Z,101690.41
2022-10-13T06:51:23.464Z,101701.22
2022-10-13T06:53:58.107Z,101698.16
2022-10-13T06:56:31.903Z,101688.69
2022-10-13T06:59:05.024Z,101696.47
2022-10-13T07:01:41.395Z,101689.03
2022-10-13T07:04:17.700Z,101690.69
2022-10-13T07:06:50.959Z,101686.66
2022-10-13T07:09:22.861Z,101682.56
2022-10-13T07:11:54.747Z,101683.03
2022-10-13T07:14:26.674Z,101682.53
2022-10-13T07:16:58.747Z,101672.84
2022-10-13T07:19:30.841Z,101678.44
2022-10-13T07:22:02.669Z,101696.03
2022-10-13T07:24:34.426Z,101691.63
2022-10-13T07:27:18.930Z,101685.19
2022-10-13T07:29:50.738Z,101681.63
2022-10-13T07:32:22.649Z,101678.75
2022-10-13T07:34:55.317Z,101677.38
2022-10-13T07:37:27.661Z,101679.91
2022-10-13T07:40:00.434Z,101669.56
2022-10-13T07:42:34.127Z,101663.75
2022-10-13T07:45:06.755Z,101665.94
2022-10-13T07:47:38.614Z,101660.19
2022-10-13T07:50:10.641Z,101662.34
2022-10-13T07:52:42.616Z,101672.66
2022-10-13T07:55:16.966Z,101670.44
2022-10-13T07:57:48.842Z,101669.25
2022-10-13T08:00:20.798Z,101680.75
2022-10-13T08:02:52.615Z,101669.72
2022-10-13T08:05:24.646Z,101670.22
2022-10-13T08:07:58.462Z,101674.44
2022-10-13T08:10:30.670Z,101671.38
2022-10-13T08:13:02.413Z,101672.38
2022-10-13T08:15:34.220Z,101667.81
2022-10-13T08:18:06.095Z,101655.25
2022-10-13T08:20:44.972Z,101658.66
2022-10-13T08:23:16.743Z,101645.06
2022-10-13T08:25:55.374Z,101652.00
2022-10-13T08:28:28.705Z,101651.28
2022-10-13T08:31:01.063Z,101648.91
2022-10-13T08:33:32.923Z,101648.56
2022-10-13T08:36:05.045Z,101642.59
2022-10-13T08:38:36.906Z,101645.31
2022-10-13T08:41:16.193Z,101651.59
2022-10-13T08:44:32.983Z,101644.09
2022-10-13T08:46:56.885Z,101653.56
2022-10-13T08:49:30.697Z,101642.53
2022-10-13T08:52:05.663Z,101645.72
2022-10-13T08:54:38.262Z,101633.47
2022-10-13T08:57:11.057Z,101647.34
2022-10-13T08:59:42.976Z,101660.38
2022-10-13T09:02:23.214Z,101673.03
2022-10-13T09:04:55.960Z,101656.69
2022-10-13T09:07:31.749Z,101654.75
2022-10-13T09:10:04.641Z,101659.22
2022-10-13T09:12:36.627Z,101652.03
2022-10-13T09:15:11.074Z,101642.09
2022-10-13T09:17:43.322Z,101635.75
2022-10-13T09:20:17.886Z,101625.00
2022-10-13T09:23:20.857Z,101628.81
2022-10-13T09:25:53.807Z,101638.47
2022-10-13T09:28:34.396Z,101634.00
2022-10-13T09:31:15.372Z,101629.66
2022-10-13T09:33:57.855Z,101636.59
2022-10-13T09:36:31.394Z,101638.75
2022-10-13T09:39:08.952Z,101639.22
2022-10-13T09:41:43.636Z,101639.50
2022-10-13T09:44:28.013Z,101627.50
2022-10-13T09:47:02.635Z,101635.84
2022-10-13T09:49:39.359Z,101632.63
2022-10-13T09:52:13.897Z,101632.09
2022-10-13T09:54:51.092Z,101635.19
2022-10-13T09:57:35.872Z,101620.84
2022-10-13T10:00:18.349Z,101630.84
2022-10-13T10:03:06.582Z,101610.22
2022-10-13T10:05:50.775Z,101609.44
2022-10-13T10:08:58.144Z,101616.81
2022-10-13T10:11:30.822Z,101604.50
2022-10-13T10:14:21.642Z,101611.66
2022-10-13T10:17:35.298Z,101619.19
2022-10-13T10:20:30.269Z,101611.38
2022-10-13T10:23:11.081Z,101607.63
2022-10-13T10:25:47.425Z,101601.50
2022-10-13T10:28:51.196Z,101600.84
2022-10-13T10:31:28.695Z,101608.44
2022-10-13T10:34:26.131Z,101605.53
2022-10-13T10:37:28.326Z,101590.69
2022-10-13T10:40:22.685Z,101596.41
2022-10-13T10:43:03.483Z,101589.03
2022-10-13T10:45:38.117Z,101583.22
2022-10-13T10:48:32.317Z,101579.44
2022-10-13T10:51:07.763Z,101578.38
2022-10-13T10:54:03.752Z,101587.22
2022-10-13T10:56:42.608Z,101567.34
2022-10-13T10:59:17.690Z,101566.16
2022-10-13T11:01:55.136Z,101557.78
2022-10-13T11:04:36.140Z,101557.22
2022-10-13T11:07:26.562Z,101553.94
2022-10-13T11:10:16.628Z,101545.56
2022-10-13T11:12:52.004Z,101538.69
2022-10-13T11:15:26.425Z,101531.19
2022-10-13T11:17:58.340Z,101525.00
2022-10-13T11:20:36.380Z,101521.66
2022-10-13T11:23:08.310Z,101515.34
2022-10-13T11:25:41.034Z,101514.06
2022-10-13T11:28:26.635Z,101507.53
2022-10-13T11:31:04.844Z,101512.25
2022-10-13T11:33:39.958Z,101509.94
2022-10-13T11:36:49.678Z,101506.75
2022-10-13T11:39:27.873Z,101512.31
2022-10-13T11:42:16.239Z,101508.75
2022-10-13T11:44:50.970Z,101499.50
2022-10-13T11:47:37.779Z,101497.00
2022-10-13T11:50:26.422Z,101495.28
2022-10-13T11:53:24.467Z,101499.06
2022-10-13T11:55:58.642Z,101501.34
2022-10-13T11:58:32.646Z,101489.69
2022-10-13T12:01:11.258Z,101495.78
2022-10-13T12:03:45.138Z,101493.94
2022-10-13T12:06:33.135Z,101498.66
2022-10-13T12:09:14.839Z,101498.31
2022-10-13T12:11:47.115Z,101494.28
2022-10-13T12:17:23.912Z,101489.09
2022-10-13T12:19:58.273Z,101488.94
2022-10-13T12:22:31.147Z,101497.13
2022-10-13T12:25:07.170Z,101477.41
2022-10-13T12:27:48.034Z,101479.09
2022-10-13T12:30:36.284Z,101469.13
2022-10-13T12:33:32.283Z,101478.50
2022-10-13T12:36:22.598Z,101473.25
2022-10-13T12:38:59.618Z,101485.88
2022-10-13T12:41:36.091Z,101482.94
2022-10-13T12:44:30.517Z,101467.53
2022-10-13T12:47:03.910Z,101482.97
2022-10-13T12:49:36.919Z,101464.94
2022-10-13T12:52:16.114Z,101467.94
2022-10-13T12:54:52.725Z,101467.59
2022-10-13T12:57:38.291Z,101462.59
2022-10-13T13:00:19.321Z,101457.66
2022-10-13T13:02:53.567Z,101461.50
2022-10-13T13:05:37.247Z,101461.50
2022-10-13T13:08:24.849Z,101461.53
2022-10-13T13:10:59.014Z,101457.34
2022-10-13T13:13:31.119Z,101464.09
2022-10-13T13:16:20.431Z,101464.16
2022-10-13T13:18:52.445Z,101468.81
2022-10-13T13:21:24.677Z,101464.66
2022-10-13T13:23:56.789Z,101453.53
2022-10-13T13:26:28.657Z,101453.34
2022-10-13T13:29:00.615Z,101441.63
2022-10-13T13:31:32.414Z,101452.97
2022-10-13T13:34:04.331Z,101453.41
2022-10-13T13:36:36.187Z,101453.63
2022-10-13T13:39:15.922Z,101458.25
2022-10-13T13:41:47.947Z,101456.81
2022-10-13T13:44:20.077Z,101453.03
2022-10-13T13:46:53.410Z,101454.53
2022-10-13T13:49:25.454Z,101457.25
2022-10-13T13:51:58.446Z,101450.50
2022-10-13T13:54:30.303Z,101456.63
2022-10-13T13:57:02.324Z,101450.09
2022-10-13T13:59:34.898Z,101452.84
2022-10-13T14:02:10.492Z,101453.25
2022-10-13T14:04:42.964Z,101448.00
2022-10-13T14:07:17.052Z,101460.19
2022-10-13T14:09:51.330Z,101462.75
2022-10-13T14:12:23.398Z,101452.84
2022-10-13T14:14:55.596Z,101446.34
2022-10-13T14:17:28.161Z,101450.97
2022-10-13T14:20:02.107Z,101444.66
2022-10-13T14:22:34.175Z,101442.97
2022-10-13T14:25:07.163Z,101436.25
2022-10-13T14:27:39.069Z,101440.44
2022-10-13T14:30:14.316Z,101443.78
2022-10-13T14:32:46.161Z,101445.69
2022-10-13T14:35:18.120Z,101434.72
2022-10-13T14:37:50.080Z,101439.75
2022-10-13T14:40:22.204Z,101439.38
2022-10-13T14:42:54.130Z,101449.91
2022-10-13T14:45:26.410Z,101435.78
2022-10-13T14:47:58.467Z,101428.44
2022-10-13T14:50:30.648Z,101431.16
2022-10-13T14:53:02.596Z,101428.03
2022-10-13T14:55:37.941Z,101428.88
2022-10-13T14:58:10.290Z,101441.25
2022-10-13T15:00:42.969Z,101429.88
2022-10-13T15:03:15.050Z,101425.03
2022-10-13T15:05:47.146Z,101428.41
2022-10-13T15:08:22.686Z,101430.72
2022-10-13T15:11:01.373Z,101427.56
2022-10-13T15:13:33.231Z,101429.06
2022-10-13T15:16:06.385Z,101422.38
2022-10-13T15:18:38.421Z,101422.78
2022-10-13T15:21:10.612Z,101415.00
2022-10-13T15:23:42.933Z,101417.31
2022-10-13T15:26:16.673Z,101419.63
2022-10-13T15:28:50.942Z,101425.75
2022-10-13T15:31:23.876Z,101421.56
2022-10-13T15:33:55.778Z,101421.97
2022-10-13T15:36:28.073Z,101420.31
2022-10-13T15:39:00.006Z,101422.19
2022-10-13T15:41:32.031Z,101432.28
2022-10-13T15:44:03.951Z,101424.31
2022-10-13T15:46:35.923Z,101428.31
2022-10-13T15:49:07.902Z,101433.59
2022-10-13T15:51:39.953Z,101426.84
2022-10-13T15:54:11.957Z,101430.66
2022-10-13T15:56:44.403Z,101431.06
2022-10-13T15:59:16.444Z,101432.09
2022-10-13T16:01:48.393Z,101427.72
2022-10-13T16:04:20.521Z,101424.34
2022-10-13T16:06:52.535Z,101421.63
2022-10-13T16:09:24.760Z,101427.72
2022-10-13T16:11:56.819Z,101425.41
2022-10-13T16:14:29.034Z,101420.38
2022-10-13T16:17:00.925Z,101426.88
2022-10-13T16:19:32.730Z,101423.94
2022-10-13T16:22:04.704Z,101423.94
2022-10-13T16:24:36.626Z,101430.44
2022-10-13T16:27:09.379Z,101427.72
2022-10-13T16:29:41.612Z,101423.09
2022-10-13T16:32:13.712Z,101426.69
2022-10-13T16:34:47.153Z,101422.47
2022-10-13T16:37:24.193Z,101424.34
2022-10-13T16:39:56.215Z,101418.03
2022-10-13T16:42:28.126Z,101418.69
2022-10-13T16:45:00.082Z,101421.41
2022-10-13T16:47:32.299Z,101422.47
2022-10-13T16:50:09.329Z,101421.63
2022-10-13T16:52:41.352Z,101419.97
2022-10-13T16:55:13.693Z,101420.78
2022-10-13T16:57:45.588Z,101420.78
2022-10-13T17:00:17.735Z,101418.69
2022-10-13T17:02:49.647Z,101424.16
2022-10-13T17:05:21.640Z,101418.69
2022-10-13T17:07:53.758Z,101412.56
2022-10-13T17:10:25.908Z,101422.06
2022-10-13T17:12:57.773Z,101426.28
2022-10-13T17:15:29.649Z,101424.56
2022-10-13T17:18:01.657Z,101422.69
2022-10-13T17:20:33.912Z,101428.16
2022-10-13T17:23:05.829Z,101424.19
2022-10-13T17:25:37.731Z,101425.41
2022-10-13T17:28:18.176Z,101431.31
2022-10-13T17:31:02.474Z,101425.88
2022-10-13T17:33:36.221Z,101421.66
2022-10-13T17:36:20.647Z,101429.66
2022-10-13T17:38:53.856Z,101430.44
2022-10-13T17:41:25.857Z,101434.66
2022-10-13T17:43:57.745Z,101437.78
2022-10-13T17:46:36.851Z,101442.63
2022-10-13T17:49:11.971Z,101445.53
2022-10-13T17:51:45.029Z,101444.28
2022-10-13T17:54:17.098Z,101447.41
2022-10-13T17:56:50.410Z,101437.75
2022-10-13T17:59:22.322Z,101443.63
2022-10-13T18:01:54.238Z,101446.75
2022-10-13T18:04:28.849Z,101441.50
2022-10-13T18:07:01.119Z,101433.69
2022-10-13T18:09:33.104Z,101433.25
2022-10-13T18:12:04.952Z,101439.09
2022-10-13T18:14:36.817Z,101442.38
2022-10-13T18:17:08.924Z,101449.91
2022-10-13T18:19:41.078Z,101433.50
2022-10-13T18:22:13.153Z,101435.16
2022-10-13T18:24:46.345Z,101428.44
2022-10-13T18:27:18.779Z,101435.56
2022-10-13T18:29:51.582Z,101436.41
2022-10-13T18:32:26.617Z,101430.50
2022-10-13T18:34:58.659Z,101435.09
2022-10-13T18:37:30.865Z,101445.34
2022-10-13T18:40:03.241Z,101446.19
2022-10-13T18:42:35.154Z,101434.47
2022-10-13T18:45:07.483Z,101437.59
2022-10-13T18:47:40.850Z,101435.38
2022-10-13T18:50:12.673Z,101442.28
2022-10-13T18:52:44.492Z,101440.84
2022-10-13T18:55:16.387Z,101441.50
2022-10-13T18:57:48.309Z,101439.38
2022-10-13T19:00:20.273Z,101433.53
2022-10-13T19:02:53.456Z,101446.13
2022-10-13T19:05:25.510Z,101442.34
2022-10-13T19:08:02.111Z,101447.78
2022-10-13T19:10:34.159Z,101442.34
2022-10-13T19:13:06.173Z,101438.81
2022-10-13T19:15:39.474Z,101441.13
2022-10-13T19:18:11.771Z,101438.19
2022-10-13T19:20:46.127Z,101442.56
2022-10-13T19:23:18.178Z,101439.47
2022-10-13T19:25:50.172Z,101441.16
2022-10-13T19:28:23.266Z,101443.88
2022-10-13T19:31:14.270Z,101439.28
2022-10-13T19:33:47.466Z,101438.19
2022-10-13T19:36:24.094Z,101441.56
2022-10-13T19:38:58.816Z,101443.28
2022-10-13T19:41:31.899Z,101436.97
2022-10-13T19:44:04.135Z,101439.91
2022-10-13T19:46:44.140Z,101444.50
2022-10-13T19:49:18.744Z,101447.22
2022-10-13T19:51:52.880Z,101447.88
2022-10-13T19:54:28.988Z,101439.28
2022-10-13T19:57:03.383Z,101443.88
2022-10-13T19:59:35.488Z,101434.84
2022-10-13T20:02:07.403Z,101444.91
2022-10-13T20:04:39.231Z,101441.53
2022-10-13T20:07:11.159Z,101438.19
2022-10-13T20:09:43.430Z,101440.91
2022-10-13T20:12:15.527Z,101440.28
2022-10-13T20:14:51.494Z,101442.34
2022-10-13T20:17:23.464Z,101439.44
2022-10-13T20:19:55.528Z,101441.97
2022-10-13T20:22:27.404Z,101444.03
2022-10-13T20:24:59.392Z,101446.75
2022-10-13T20:27:31.429Z,101443.41
2022-10-13T20:30:04.081Z,101437.97
2022-10-13T20:32:35.930Z,101443.41
2022-10-13T20:35:08.144Z,101443.41
2022-10-13T20:37:40.014Z,101447.78
2022-10-13T20:40:11.901Z,101438.59
2022-10-13T20:42:49.342Z,101441.13
2022-10-13T20:45:22.751Z,101449.09
2022-10-13T20:47:54.677Z,101443.66
2022-10-13T20:50:26.566Z,101451.81
2022-10-13T20:52:58.429Z,101438.38
2022-10-13T20:55:30.968Z,101444.50
2022-10-13T20:58:02.896Z,101440.69
2022-10-13T21:00:34.916Z,101439.66
2022-10-13T21:03:06.976Z,101439.84
2022-10-13T21:05:38.784Z,101443.84
2022-10-13T21:08:11.407Z,101437.34
2022-10-13T21:10:44.899Z,101447.41
2022-10-13T21:13:17.270Z,101442.34
2022-10-13T21:15:49.326Z,101444.03
2022-10-13T21:18:24.751Z,101446.13
2022-10-13T21:21:02.572Z,101449.72
2022-10-13T21:23:34.914Z,101435.25
2022-10-13T21:26:08.113Z,101444.44
2022-10-13T21:28:39.972Z,101446.53
2022-10-13T21:31:13.941Z,101448.63
2022-10-13T21:33:45.776Z,101451.75
2022-10-13T21:36:22.926Z,101444.59
2022-10-13T21:39:00.242Z,101449.00
2022-10-13T21:41:32.379Z,101441.06
2022-10-13T21:44:04.349Z,101438.97
2022-10-13T21:46:37.189Z,101442.53
2022-10-13T21:49:10.140Z,101446.94
2022-10-13T21:51:44.136Z,101449.66
2022-10-13T21:54:16.082Z,101445.66
2022-10-13T21:56:48.020Z,101449.44
2022-10-13T21:59:20.090Z,101442.28
2022-10-13T22:01:51.968Z,101446.06
2022-10-13T22:04:23.968Z,101438.94
2022-10-13T22:06:55.724Z,101440.59
2022-10-13T22:09:30.722Z,101434.78
2022-10-13T22:12:09.086Z,101436.44
2022-10-13T22:14:40.946Z,101438.13
2022-10-13T22:17:12.999Z,101438.56
2022-10-13T22:19:44.845Z,101438.34
2022-10-13T22:22:16.749Z,101431.44
2022-10-13T22:24:48.618Z,101437.28
2022-10-13T22:27:20.804Z,101431.38
2022-10-13T22:29:52.749Z,101427.63
2022-10-13T22:32:24.595Z,101428.47
2022-10-13T22:34:56.594Z,101426.34
2022-10-13T22:37:28.541Z,101428.44
2022-10-13T22:40:00.447Z,101429.44
2022-10-13T22:42:32.363Z,101425.06
2022-10-13T22:45:04.608Z,101434.03
2022-10-13T22:47:38.027Z,101423.97
2022-10-13T22:50:10.076Z,101421.25
2022-10-13T22:52:41.914Z,101426.09
2022-10-13T22:55:14.418Z,101420.84
2022-10-13T22:57:46.408Z,101422.72
2022-10-13T23:00:18.340Z,101419.16
2022-10-13T23:02:51.174Z,101423.75
2022-10-13T23:05:23.302Z,101423.13
2022-10-13T23:07:55.146Z,101419.75
2022-10-13T23:10:27.064Z,101414.97
2022-10-13T23:12:58.969Z,101416.63
2022-10-13T23:15:31.288Z,101411.63
2022-10-13T23:18:03.167Z,101408.69
2022-10-13T23:20:39.401Z,101406.63
2022-10-13T23:23:11.526Z,101399.31
2022-10-13T23:25:43.293Z,101407.63
2022-10-13T23:28:15.448Z,101398.47
2022-10-13T23:30:47.243Z,101400.31
2022-10-13T23:33:20.414Z,101402.41
2022-10-13T23:36:00.264Z,101390.66
2022-10-13T23:38:32.877Z,101400.31
2022-10-13T23:41:13.086Z,101401.19
2022-10-13T23:43:45.073Z,101394.00
2022-10-13T23:46:16.946Z,101395.72
2022-10-13T23:48:49.126Z,101390.28
2022-10-13T23:51:23.226Z,101387.38
2022-10-13T23:53:55.745Z,101388.81
2022-10-13T23:56:28.150Z,101388.63
2022-10-13T23:59:00.331Z,101391.56
